sensor_id;sensor_type;location;lat;lon;timestamp;temperature;humidity
68943;DHT22;60852;52.190;4.422;2023-09-07T00:01:16;22.87;71.97
68943;DHT22;60852;52.190;4.422;2023-09-07T00:03:41;22.91;71.80
68943;DHT22;60852;52.190;4.422;2023-09-07T00:06:08;22.90;71.79
68943;DHT22;60852;52.190;4.422;2023-09-07T00:08:33;22.81;71.96
68943;DHT22;60852;52.190;4.422;2023-09-07T00:11:03;22.75;72.26
68943;DHT22;60852;52.190;4.422;2023-09-07T00:13:29;22.71;72.39
68943;DHT22;60852;52.190;4.422;2023-09-07T00:16:01;22.61;72.64
68943;DHT22;60852;52.190;4.422;2023-09-07T00:18:27;22.57;72.86
68943;DHT22;60852;52.190;4.422;2023-09-07T00:20:53;22.51;72.91
68943;DHT22;60852;52.190;4.422;2023-09-07T00:23:18;22.51;72.94
68943;DHT22;60852;52.190;4.422;2023-09-07T00:25:45;22.47;72.91
68943;DHT22;60852;52.190;4.422;2023-09-07T00:28:11;22.47;72.84
68943;DHT22;60852;52.190;4.422;2023-09-07T00:30:37;22.47;72.89
68943;DHT22;60852;52.190;4.422;2023-09-07T00:33:02;22.47;72.63
68943;DHT22;60852;52.190;4.422;2023-09-07T00:35:28;22.43;72.64
68943;DHT22;60852;52.190;4.422;2023-09-07T00:37:53;22.45;72.56
68943;DHT22;60852;52.190;4.422;2023-09-07T00:40:20;22.48;72.54
68943;DHT22;60852;52.190;4.422;2023-09-07T00:42:46;22.47;72.47
68943;DHT22;60852;52.190;4.422;2023-09-07T00:45:11;22.45;72.36
68943;DHT22;60852;52.190;4.422;2023-09-07T00:47:38;22.48;72.23
68943;DHT22;60852;52.190;4.422;2023-09-07T00:50:04;22.47;72.16
68943;DHT22;60852;52.190;4.422;2023-09-07T00:52:32;22.48;72.03
68943;DHT22;60852;52.190;4.422;2023-09-07T00:54:59;22.50;72.00
68943;DHT22;60852;52.190;4.422;2023-09-07T00:57:24;22.54;71.90
68943;DHT22;60852;52.190;4.422;2023-09-07T00:59:50;22.55;71.73
68943;DHT22;60852;52.190;4.422;2023-09-07T01:02:16;22.50;71.71
68943;DHT22;60852;52.190;4.422;2023-09-07T01:04:42;22.47;71.76
68943;DHT22;60852;52.190;4.422;2023-09-07T01:07:18;22.50;71.62
68943;DHT22;60852;52.190;4.422;2023-09-07T01:09:49;22.41;71.76
68943;DHT22;60852;52.190;4.422;2023-09-07T01:12:16;22.40;72.00
68943;DHT22;60852;52.190;4.422;2023-09-07T01:14:42;22.36;72.04
68943;DHT22;60852;52.190;4.422;2023-09-07T01:17:09;22.32;72.04
68943;DHT22;60852;52.190;4.422;2023-09-07T01:19:36;22.27;72.21
68943;DHT22;60852;52.190;4.422;2023-09-07T01:22:03;22.24;72.32
68943;DHT22;60852;52.190;4.422;2023-09-07T01:24:30;22.20;72.36
68943;DHT22;60852;52.190;4.422;2023-09-07T01:26:59;22.18;72.42
68943;DHT22;60852;52.190;4.422;2023-09-07T01:29:25;22.18;72.31
68943;DHT22;60852;52.190;4.422;2023-09-07T01:31:55;22.14;72.41
68943;DHT22;60852;52.190;4.422;2023-09-07T01:34:20;22.17;72.36
68943;DHT22;60852;52.190;4.422;2023-09-07T01:36:46;22.12;72.36
68943;DHT22;60852;52.190;4.422;2023-09-07T01:39:11;22.03;72.65
68943;DHT22;60852;52.190;4.422;2023-09-07T01:41:37;22.02;72.71
68943;DHT22;60852;52.190;4.422;2023-09-07T01:44:02;21.93;72.91
68943;DHT22;60852;52.190;4.422;2023-09-07T01:46:28;21.83;73.19
68943;DHT22;60852;52.190;4.422;2023-09-07T01:48:53;21.76;73.35
68943;DHT22;60852;52.190;4.422;2023-09-07T01:51:19;21.67;73.72
68943;DHT22;60852;52.190;4.422;2023-09-07T01:53:47;21.62;73.89
68943;DHT22;60852;52.190;4.422;2023-09-07T01:56:16;21.62;73.95
68943;DHT22;60852;52.190;4.422;2023-09-07T01:58:41;21.56;74.08
68943;DHT22;60852;52.190;4.422;2023-09-07T02:01:09;21.58;74.10
68943;DHT22;60852;52.190;4.422;2023-09-07T02:03:44;21.49;74.24
68943;DHT22;60852;52.190;4.422;2023-09-07T02:06:10;21.42;74.51
68943;DHT22;60852;52.190;4.422;2023-09-07T02:08:35;21.35;74.80
68943;DHT22;60852;52.190;4.422;2023-09-07T02:11:01;21.31;74.89
68943;DHT22;60852;52.190;4.422;2023-09-07T02:13:26;21.24;75.19
68943;DHT22;60852;52.190;4.422;2023-09-07T02:15:51;21.23;75.26
68943;DHT22;60852;52.190;4.422;2023-09-07T02:18:17;21.18;75.32
68943;DHT22;60852;52.190;4.422;2023-09-07T02:20:42;21.20;75.34
68943;DHT22;60852;52.190;4.422;2023-09-07T02:23:08;21.15;75.32
68943;DHT22;60852;52.190;4.422;2023-09-07T02:25:33;21.12;75.43
68943;DHT22;60852;52.190;4.422;2023-09-07T02:27:59;21.12;75.33
68943;DHT22;60852;52.190;4.422;2023-09-07T02:30:25;21.15;75.22
68943;DHT22;60852;52.190;4.422;2023-09-07T02:32:50;21.14;75.27
68943;DHT22;60852;52.190;4.422;2023-09-07T02:35:16;21.10;75.39
68943;DHT22;60852;52.190;4.422;2023-09-07T02:37:42;21.10;75.35
68943;DHT22;60852;52.190;4.422;2023-09-07T02:40:07;21.10;75.36
68943;DHT22;60852;52.190;4.422;2023-09-07T02:42:33;21.17;75.19
68943;DHT22;60852;52.190;4.422;2023-09-07T02:44:59;21.21;75.01
68943;DHT22;60852;52.190;4.422;2023-09-07T02:47:25;21.25;74.70
68943;DHT22;60852;52.190;4.422;2023-09-07T02:49:50;21.32;74.53
68943;DHT22;60852;52.190;4.422;2023-09-07T02:52:16;21.34;74.31
68943;DHT22;60852;52.190;4.422;2023-09-07T02:54:41;21.35;74.20
68943;DHT22;60852;52.190;4.422;2023-09-07T02:57:07;21.38;74.11
68943;DHT22;60852;52.190;4.422;2023-09-07T02:59:32;21.35;73.94
68943;DHT22;60852;52.190;4.422;2023-09-07T03:01:58;21.32;74.06
68943;DHT22;60852;52.190;4.422;2023-09-07T03:04:23;21.34;74.17
68943;DHT22;60852;52.190;4.422;2023-09-07T03:06:49;21.35;74.27
68943;DHT22;60852;52.190;4.422;2023-09-07T03:09:14;21.34;74.26
68943;DHT22;60852;52.190;4.422;2023-09-07T03:11:40;21.30;74.34
68943;DHT22;60852;52.190;4.422;2023-09-07T03:14:06;21.32;74.15
68943;DHT22;60852;52.190;4.422;2023-09-07T03:16:31;21.28;74.25
68943;DHT22;60852;52.190;4.422;2023-09-07T03:18:57;21.21;74.61
68943;DHT22;60852;52.190;4.422;2023-09-07T03:21:22;21.17;74.76
68943;DHT22;60852;52.190;4.422;2023-09-07T03:23:56;21.04;75.20
68943;DHT22;60852;52.190;4.422;2023-09-07T03:26:22;21.00;75.34
68943;DHT22;60852;52.190;4.422;2023-09-07T03:28:47;20.97;75.45
68943;DHT22;60852;52.190;4.422;2023-09-07T03:31:13;20.96;75.50
68943;DHT22;60852;52.190;4.422;2023-09-07T03:33:38;20.93;75.54
68943;DHT22;60852;52.190;4.422;2023-09-07T03:36:04;20.88;75.54
68943;DHT22;60852;52.190;4.422;2023-09-07T03:38:30;20.88;75.71
68943;DHT22;60852;52.190;4.422;2023-09-07T03:40:55;20.84;75.70
68943;DHT22;60852;52.190;4.422;2023-09-07T03:43:20;20.87;75.61
68943;DHT22;60852;52.190;4.422;2023-09-07T03:45:46;20.90;75.49
68943;DHT22;60852;52.190;4.422;2023-09-07T03:48:12;20.90;75.49
68943;DHT22;60852;52.190;4.422;2023-09-07T03:50:37;20.93;75.29
68943;DHT22;60852;52.190;4.422;2023-09-07T03:53:03;20.97;75.18
68943;DHT22;60852;52.190;4.422;2023-09-07T03:55:29;20.94;75.22
68943;DHT22;60852;52.190;4.422;2023-09-07T03:57:54;20.91;75.24
68943;DHT22;60852;52.190;4.422;2023-09-07T04:00:20;20.93;75.12
68943;DHT22;60852;52.190;4.422;2023-09-07T04:02:46;20.91;75.14
68943;DHT22;60852;52.190;4.422;2023-09-07T04:05:12;20.87;75.19
68943;DHT22;60852;52.190;4.422;2023-09-07T04:07:38;20.79;75.58
68943;DHT22;60852;52.190;4.422;2023-09-07T04:10:04;20.72;75.73
68943;DHT22;60852;52.190;4.422;2023-09-07T04:12:30;20.69;75.95
68943;DHT22;60852;52.190;4.422;2023-09-07T04:14:56;20.63;76.04
68943;DHT22;60852;52.190;4.422;2023-09-07T04:17:21;20.62;76.11
68943;DHT22;60852;52.190;4.422;2023-09-07T04:19:47;20.56;76.12
68943;DHT22;60852;52.190;4.422;2023-09-07T04:22:12;20.53;76.24
68943;DHT22;60852;52.190;4.422;2023-09-07T04:24:38;20.50;76.19
68943;DHT22;60852;52.190;4.422;2023-09-07T04:27:04;20.46;76.45
68943;DHT22;60852;52.190;4.422;2023-09-07T04:29:30;20.43;76.52
68943;DHT22;60852;52.190;4.422;2023-09-07T04:31:55;20.35;76.69
68943;DHT22;60852;52.190;4.422;2023-09-07T04:34:22;20.33;76.55
68943;DHT22;60852;52.190;4.422;2023-09-07T04:36:48;20.25;77.09
68943;DHT22;60852;52.190;4.422;2023-09-07T04:39:13;20.15;77.46
68943;DHT22;60852;52.190;4.422;2023-09-07T04:41:42;20.08;77.52
68943;DHT22;60852;52.190;4.422;2023-09-07T04:44:07;20.04;77.85
68943;DHT22;60852;52.190;4.422;2023-09-07T04:46:33;20.02;77.97
68943;DHT22;60852;52.190;4.422;2023-09-07T04:48:58;20.02;78.02
68943;DHT22;60852;52.190;4.422;2023-09-07T04:51:23;19.99;78.07
68943;DHT22;60852;52.190;4.422;2023-09-07T04:53:51;19.98;78.07
68943;DHT22;60852;52.190;4.422;2023-09-07T04:56:16;19.88;78.36
68943;DHT22;60852;52.190;4.422;2023-09-07T04:58:42;19.84;78.50
68943;DHT22;60852;52.190;4.422;2023-09-07T05:01:10;19.82;78.68
68943;DHT22;60852;52.190;4.422;2023-09-07T05:03:37;19.79;78.89
68943;DHT22;60852;52.190;4.422;2023-09-07T05:06:04;19.75;79.00
68943;DHT22;60852;52.190;4.422;2023-09-07T05:08:30;19.75;79.18
68943;DHT22;60852;52.190;4.422;2023-09-07T05:10:57;19.73;79.21
68943;DHT22;60852;52.190;4.422;2023-09-07T05:13:23;19.73;79.28
68943;DHT22;60852;52.190;4.422;2023-09-07T05:15:50;19.71;79.39
68943;DHT22;60852;52.190;4.422;2023-09-07T05:18:16;19.66;79.51
68943;DHT22;60852;52.190;4.422;2023-09-07T05:20:43;19.57;79.74
68943;DHT22;60852;52.190;4.422;2023-09-07T05:23:12;19.50;80.05
68943;DHT22;60852;52.190;4.422;2023-09-07T05:25:51;19.46;80.25
68943;DHT22;60852;52.190;4.422;2023-09-07T05:28:21;19.47;80.26
68943;DHT22;60852;52.190;4.422;2023-09-07T05:30:48;19.51;80.21
68943;DHT22;60852;52.190;4.422;2023-09-07T05:33:16;19.58;80.08
68943;DHT22;60852;52.190;4.422;2023-09-07T05:35:42;19.54;79.95
68943;DHT22;60852;52.190;4.422;2023-09-07T05:38:08;19.54;80.08
68943;DHT22;60852;52.190;4.422;2023-09-07T05:40:38;19.51;80.19
68943;DHT22;60852;52.190;4.422;2023-09-07T05:43:04;19.56;80.12
68943;DHT22;60852;52.190;4.422;2023-09-07T05:45:38;19.56;80.20
68943;DHT22;60852;52.190;4.422;2023-09-07T05:48:04;19.66;80.07
68943;DHT22;60852;52.190;4.422;2023-09-07T05:50:30;19.71;79.94
68943;DHT22;60852;52.190;4.422;2023-09-07T05:52:56;19.78;79.61
68943;DHT22;60852;52.190;4.422;2023-09-07T05:55:22;19.84;79.37
68943;DHT22;60852;52.190;4.422;2023-09-07T05:57:48;19.94;79.16
68943;DHT22;60852;52.190;4.422;2023-09-07T06:00:14;19.92;78.95
68943;DHT22;60852;52.190;4.422;2023-09-07T06:02:44;19.98;78.89
68943;DHT22;60852;52.190;4.422;2023-09-07T06:05:09;20.09;78.60
68943;DHT22;60852;52.190;4.422;2023-09-07T06:07:36;20.18;78.36
68943;DHT22;60852;52.190;4.422;2023-09-07T06:10:01;20.29;78.04
68943;DHT22;60852;52.190;4.422;2023-09-07T06:12:27;20.36;77.72
68943;DHT22;60852;52.190;4.422;2023-09-07T06:14:52;20.45;77.61
68943;DHT22;60852;52.190;4.422;2023-09-07T06:17:18;20.57;77.14
68943;DHT22;60852;52.190;4.422;2023-09-07T06:19:44;20.59;76.93
68943;DHT22;60852;52.190;4.422;2023-09-07T06:22:10;20.60;76.93
68943;DHT22;60852;52.190;4.422;2023-09-07T06:24:35;20.60;76.98
68943;DHT22;60852;52.190;4.422;2023-09-07T06:27:01;20.60;77.03
68943;DHT22;60852;52.190;4.422;2023-09-07T06:29:26;20.67;77.11
68943;DHT22;60852;52.190;4.422;2023-09-07T06:31:52;20.70;77.06
68943;DHT22;60852;52.190;4.422;2023-09-07T06:34:17;20.73;76.87
68943;DHT22;60852;52.190;4.422;2023-09-07T06:36:43;20.76;76.86
68943;DHT22;60852;52.190;4.422;2023-09-07T06:39:08;20.86;76.70
68943;DHT22;60852;52.190;4.422;2023-09-07T06:41:34;20.90;76.11
68943;DHT22;60852;52.190;4.422;2023-09-07T06:44:00;20.91;75.60
68943;DHT22;60852;52.190;4.422;2023-09-07T06:46:25;21.07;75.15
68943;DHT22;60852;52.190;4.422;2023-09-07T06:48:51;21.17;74.84
68943;DHT22;60852;52.190;4.422;2023-09-07T06:51:16;21.25;73.95
68943;DHT22;60852;52.190;4.422;2023-09-07T06:53:41;21.38;73.76
68943;DHT22;60852;52.190;4.422;2023-09-07T06:56:07;21.51;73.17
68943;DHT22;60852;52.190;4.422;2023-09-07T06:58:32;21.63;72.47
68943;DHT22;60852;52.190;4.422;2023-09-07T07:01:00;21.72;71.87
68943;DHT22;60852;52.190;4.422;2023-09-07T07:03:27;21.79;71.45
68943;DHT22;60852;52.190;4.422;2023-09-07T07:05:54;21.86;70.94
68943;DHT22;60852;52.190;4.422;2023-09-07T07:08:19;21.96;70.64
68943;DHT22;60852;52.190;4.422;2023-09-07T07:10:45;22.04;70.48
68943;DHT22;60852;52.190;4.422;2023-09-07T07:13:11;22.13;70.38
68943;DHT22;60852;52.190;4.422;2023-09-07T07:15:36;22.23;70.13
68943;DHT22;60852;52.190;4.422;2023-09-07T07:18:02;22.25;69.87
68943;DHT22;60852;52.190;4.422;2023-09-07T07:20:43;22.33;69.65
68943;DHT22;60852;52.190;4.422;2023-09-07T07:23:11;22.41;69.55
68943;DHT22;60852;52.190;4.422;2023-09-07T07:25:38;22.45;69.07
68943;DHT22;60852;52.190;4.422;2023-09-07T07:28:05;22.50;69.74
68943;DHT22;60852;52.190;4.422;2023-09-07T07:30:38;22.53;69.16
68943;DHT22;60852;52.190;4.422;2023-09-07T07:33:08;22.54;69.43
68943;DHT22;60852;52.190;4.422;2023-09-07T07:35:35;22.60;69.64
68943;DHT22;60852;52.190;4.422;2023-09-07T07:38:05;22.65;69.38
68943;DHT22;60852;52.190;4.422;2023-09-07T07:40:31;22.69;69.30
68943;DHT22;60852;52.190;4.422;2023-09-07T07:42:57;22.75;68.50
68943;DHT22;60852;52.190;4.422;2023-09-07T07:45:22;22.79;68.25
68943;DHT22;60852;52.190;4.422;2023-09-07T07:47:52;22.87;67.64
68943;DHT22;60852;52.190;4.422;2023-09-07T07:50:18;22.91;67.77
68943;DHT22;60852;52.190;4.422;2023-09-07T07:52:44;22.96;67.62
68943;DHT22;60852;52.190;4.422;2023-09-07T07:55:11;23.01;67.04
68943;DHT22;60852;52.190;4.422;2023-09-07T07:57:37;23.11;66.76
68943;DHT22;60852;52.190;4.422;2023-09-07T08:00:04;23.16;66.53
68943;DHT22;60852;52.190;4.422;2023-09-07T08:02:30;23.22;66.39
68943;DHT22;60852;52.190;4.422;2023-09-07T08:04:56;23.30;66.40
68943;DHT22;60852;52.190;4.422;2023-09-07T08:07:22;23.36;65.90
68943;DHT22;60852;52.190;4.422;2023-09-07T08:09:47;23.42;65.67
68943;DHT22;60852;52.190;4.422;2023-09-07T08:12:13;23.52;64.90
68943;DHT22;60852;52.190;4.422;2023-09-07T08:14:38;23.59;65.03
68943;DHT22;60852;52.190;4.422;2023-09-07T08:17:04;23.61;64.84
68943;DHT22;60852;52.190;4.422;2023-09-07T08:19:29;23.69;64.95
68943;DHT22;60852;52.190;4.422;2023-09-07T08:21:55;23.78;64.65
68943;DHT22;60852;52.190;4.422;2023-09-07T08:24:20;23.85;64.55
68943;DHT22;60852;52.190;4.422;2023-09-07T08:26:46;23.98;63.49
68943;DHT22;60852;52.190;4.422;2023-09-07T08:29:17;24.12;62.97
68943;DHT22;60852;52.190;4.422;2023-09-07T08:31:42;24.24;62.53
68943;DHT22;60852;52.190;4.422;2023-09-07T08:34:11;24.31;61.90
68943;DHT22;60852;52.190;4.422;2023-09-07T08:36:37;24.41;61.55
68943;DHT22;60852;52.190;4.422;2023-09-07T08:39:04;24.49;61.38
68943;DHT22;60852;52.190;4.422;2023-09-07T08:41:42;24.58;61.58
68943;DHT22;60852;52.190;4.422;2023-09-07T08:44:17;24.56;60.88
68943;DHT22;60852;52.190;4.422;2023-09-07T08:46:44;24.65;61.08
68943;DHT22;60852;52.190;4.422;2023-09-07T08:49:11;24.76;60.05
68943;DHT22;60852;52.190;4.422;2023-09-07T08:51:37;24.83;60.03
68943;DHT22;60852;52.190;4.422;2023-09-07T08:54:07;24.96;59.72
68943;DHT22;60852;52.190;4.422;2023-09-07T08:56:34;25.10;59.87
68943;DHT22;60852;52.190;4.422;2023-09-07T08:58:59;25.14;59.77
68943;DHT22;60852;52.190;4.422;2023-09-07T09:01:25;25.21;59.39
68943;DHT22;60852;52.190;4.422;2023-09-07T09:03:51;25.24;59.18
68943;DHT22;60852;52.190;4.422;2023-09-07T09:06:18;25.30;59.33
68943;DHT22;60852;52.190;4.422;2023-09-07T09:08:52;25.39;58.89
68943;DHT22;60852;52.190;4.422;2023-09-07T09:11:19;25.48;59.35
68943;DHT22;60852;52.190;4.422;2023-09-07T09:13:45;25.51;59.26
68943;DHT22;60852;52.190;4.422;2023-09-07T09:16:12;25.61;59.26
68943;DHT22;60852;52.190;4.422;2023-09-07T09:18:50;25.68;58.87
68943;DHT22;60852;52.190;4.422;2023-09-07T09:21:18;25.74;58.84
68943;DHT22;60852;52.190;4.422;2023-09-07T09:23:48;25.74;59.01
68943;DHT22;60852;52.190;4.422;2023-09-07T09:26:15;25.72;58.83
68943;DHT22;60852;52.190;4.422;2023-09-07T09:28:42;25.76;58.93
68943;DHT22;60852;52.190;4.422;2023-09-07T09:31:08;25.82;59.26
68943;DHT22;60852;52.190;4.422;2023-09-07T09:33:38;25.90;58.72
68943;DHT22;60852;52.190;4.422;2023-09-07T09:36:06;25.89;58.23
68943;DHT22;60852;52.190;4.422;2023-09-07T09:38:32;25.81;57.90
68943;DHT22;60852;52.190;4.422;2023-09-07T09:40:58;25.75;57.85
68943;DHT22;60852;52.190;4.422;2023-09-07T09:43:25;25.88;58.17
68943;DHT22;60852;52.190;4.422;2023-09-07T09:45:52;26.00;57.98
68943;DHT22;60852;52.190;4.422;2023-09-07T09:48:22;26.07;56.84
68943;DHT22;60852;52.190;4.422;2023-09-07T09:50:49;26.22;56.98
68943;DHT22;60852;52.190;4.422;2023-09-07T09:53:16;26.36;56.77
68943;DHT22;60852;52.190;4.422;2023-09-07T09:55:47;26.41;55.94
68943;DHT22;60852;52.190;4.422;2023-09-07T09:58:14;26.43;56.30
68943;DHT22;60852;52.190;4.422;2023-09-07T10:00:45;26.58;56.02
68943;DHT22;60852;52.190;4.422;2023-09-07T10:03:25;26.70;55.97
68943;DHT22;60852;52.190;4.422;2023-09-07T10:05:53;26.81;54.66
68943;DHT22;60852;52.190;4.422;2023-09-07T10:08:20;26.98;54.56
68943;DHT22;60852;52.190;4.422;2023-09-07T10:10:49;27.06;55.14
68943;DHT22;60852;52.190;4.422;2023-09-07T10:13:29;27.04;55.43
68943;DHT22;60852;52.190;4.422;2023-09-07T10:16:03;27.09;55.32
68943;DHT22;60852;52.190;4.422;2023-09-07T10:18:34;27.94;53.56
68943;DHT22;60852;52.190;4.422;2023-09-07T10:21:00;28.48;51.50
68943;DHT22;60852;52.190;4.422;2023-09-07T10:23:44;28.99;49.87
68943;DHT22;60852;52.190;4.422;2023-09-07T10:26:18;29.51;49.10
68943;DHT22;60852;52.190;4.422;2023-09-07T10:28:45;29.72;48.29
68943;DHT22;60852;52.190;4.422;2023-09-07T10:31:18;29.82;48.32
68943;DHT22;60852;52.190;4.422;2023-09-07T10:33:45;29.86;48.14
68943;DHT22;60852;52.190;4.422;2023-09-07T10:36:27;30.29;47.15
68943;DHT22;60852;52.190;4.422;2023-09-07T10:38:55;30.28;46.80
68943;DHT22;60852;52.190;4.422;2023-09-07T10:41:22;29.84;47.16
68943;DHT22;60852;52.190;4.422;2023-09-07T10:43:50;29.68;47.07
68943;DHT22;60852;52.190;4.422;2023-09-07T10:46:21;29.54;47.20
68943;DHT22;60852;52.190;4.422;2023-09-07T10:48:54;29.78;47.07
68943;DHT22;60852;52.190;4.422;2023-09-07T10:51:21;30.23;45.61
68943;DHT22;60852;52.190;4.422;2023-09-07T10:53:48;30.59;45.03
68943;DHT22;60852;52.190;4.422;2023-09-07T10:56:14;30.47;44.93
68943;DHT22;60852;52.190;4.422;2023-09-07T10:58:40;30.09;45.32
68943;DHT22;60852;52.190;4.422;2023-09-07T11:01:08;30.08;45.10
68943;DHT22;60852;52.190;4.422;2023-09-07T11:03:37;30.36;44.54
68943;DHT22;60852;52.190;4.422;2023-09-07T11:06:16;30.43;45.34
68943;DHT22;60852;52.190;4.422;2023-09-07T11:08:45;30.37;44.67
68943;DHT22;60852;52.190;4.422;2023-09-07T11:11:12;30.33;44.80
68943;DHT22;60852;52.190;4.422;2023-09-07T11:13:38;30.19;45.64
68943;DHT22;60852;52.190;4.422;2023-09-07T11:16:07;30.08;44.96
68943;DHT22;60852;52.190;4.422;2023-09-07T11:18:33;29.88;45.46
68943;DHT22;60852;52.190;4.422;2023-09-07T11:21:02;29.77;44.92
68943;DHT22;60852;52.190;4.422;2023-09-07T11:23:30;29.64;44.70
68943;DHT22;60852;52.190;4.422;2023-09-07T11:26:08;29.77;45.64
68943;DHT22;60852;52.190;4.422;2023-09-07T11:28:33;29.95;45.53
68943;DHT22;60852;52.190;4.422;2023-09-07T11:30:59;30.05;46.34
68943;DHT22;60852;52.190;4.422;2023-09-07T11:33:26;29.92;45.36
68943;DHT22;60852;52.190;4.422;2023-09-07T11:35:53;29.91;45.76
68943;DHT22;60852;52.190;4.422;2023-09-07T11:38:21;30.13;44.75
68943;DHT22;60852;52.190;4.422;2023-09-07T11:40:47;30.10;44.34
68943;DHT22;60852;52.190;4.422;2023-09-07T11:43:14;30.10;44.34
68943;DHT22;60852;52.190;4.422;2023-09-07T11:45:42;30.19;44.06
68943;DHT22;60852;52.190;4.422;2023-09-07T11:48:08;30.23;43.82
68943;DHT22;60852;52.190;4.422;2023-09-07T11:50:37;30.26;43.75
68943;DHT22;60852;52.190;4.422;2023-09-07T11:53:04;30.37;43.47
68943;DHT22;60852;52.190;4.422;2023-09-07T11:55:31;30.37;42.78
68943;DHT22;60852;52.190;4.422;2023-09-07T11:57:56;30.19;42.42
68943;DHT22;60852;52.190;4.422;2023-09-07T12:00:23;29.97;43.22
68943;DHT22;60852;52.190;4.422;2023-09-07T12:02:49;30.09;43.34
68943;DHT22;60852;52.190;4.422;2023-09-07T12:05:14;30.25;42.72
68943;DHT22;60852;52.190;4.422;2023-09-07T12:07:42;30.35;42.90
68943;DHT22;60852;52.190;4.422;2023-09-07T12:10:11;30.29;42.84
68943;DHT22;60852;52.190;4.422;2023-09-07T12:12:37;30.41;43.84
68943;DHT22;60852;52.190;4.422;2023-09-07T12:15:03;30.56;42.38
68943;DHT22;60852;52.190;4.422;2023-09-07T12:17:33;30.59;42.29
68943;DHT22;60852;52.190;4.422;2023-09-07T12:19:59;30.49;42.47
68943;DHT22;60852;52.190;4.422;2023-09-07T12:22:26;30.56;41.06
68943;DHT22;60852;52.190;4.422;2023-09-07T12:24:51;30.63;41.70
68943;DHT22;60852;52.190;4.422;2023-09-07T12:27:17;30.50;41.54
68943;DHT22;60852;52.190;4.422;2023-09-07T12:29:43;30.53;39.99
68943;DHT22;60852;52.190;4.422;2023-09-07T12:32:09;30.63;40.08
68943;DHT22;60852;52.190;4.422;2023-09-07T12:34:34;30.68;39.97
68943;DHT22;60852;52.190;4.422;2023-09-07T12:37:00;30.68;38.79
68943;DHT22;60852;52.190;4.422;2023-09-07T12:39:26;30.70;39.01
68943;DHT22;60852;52.190;4.422;2023-09-07T12:41:51;30.74;38.74
68943;DHT22;60852;52.190;4.422;2023-09-07T12:44:17;30.80;38.56
68943;DHT22;60852;52.190;4.422;2023-09-07T12:46:44;30.74;38.22
68943;DHT22;60852;52.190;4.422;2023-09-07T12:49:09;30.77;39.21
68943;DHT22;60852;52.190;4.422;2023-09-07T12:51:35;30.76;37.80
68943;DHT22;60852;52.190;4.422;2023-09-07T12:54:01;30.81;37.73
68943;DHT22;60852;52.190;4.422;2023-09-07T12:56:26;30.77;37.39
68943;DHT22;60852;52.190;4.422;2023-09-07T12:58:52;30.87;37.85
68943;DHT22;60852;52.190;4.422;2023-09-07T13:01:18;30.94;37.84
68943;DHT22;60852;52.190;4.422;2023-09-07T13:03:44;30.99;38.94
68943;DHT22;60852;52.190;4.422;2023-09-07T13:06:10;31.05;37.69
68943;DHT22;60852;52.190;4.422;2023-09-07T13:08:35;31.07;38.32
68943;DHT22;60852;52.190;4.422;2023-09-07T13:11:01;31.04;37.79
68943;DHT22;60852;52.190;4.422;2023-09-07T13:13:26;31.05;37.82
68943;DHT22;60852;52.190;4.422;2023-09-07T13:15:57;31.10;38.00
68943;DHT22;60852;52.190;4.422;2023-09-07T13:18:24;31.11;37.59
68943;DHT22;60852;52.190;4.422;2023-09-07T13:20:50;31.11;37.56
68943;DHT22;60852;52.190;4.422;2023-09-07T13:23:17;31.14;37.96
68943;DHT22;60852;52.190;4.422;2023-09-07T13:25:43;31.21;37.61
68943;DHT22;60852;52.190;4.422;2023-09-07T13:28:08;31.24;36.22
68943;DHT22;60852;52.190;4.422;2023-09-07T13:30:34;31.24;36.51
68943;DHT22;60852;52.190;4.422;2023-09-07T13:32:59;31.21;37.49
68943;DHT22;60852;52.190;4.422;2023-09-07T13:35:25;31.29;38.50
68943;DHT22;60852;52.190;4.422;2023-09-07T13:37:51;31.28;36.78
68943;DHT22;60852;52.190;4.422;2023-09-07T13:40:16;31.28;35.56
68943;DHT22;60852;52.190;4.422;2023-09-07T13:42:45;31.25;35.60
68943;DHT22;60852;52.190;4.422;2023-09-07T13:45:10;31.17;36.07
68943;DHT22;60852;52.190;4.422;2023-09-07T13:47:36;31.12;37.67
68943;DHT22;60852;52.190;4.422;2023-09-07T13:50:02;31.14;37.64
68943;DHT22;60852;52.190;4.422;2023-09-07T13:52:28;31.12;37.89
68943;DHT22;60852;52.190;4.422;2023-09-07T13:54:53;31.11;38.63
68943;DHT22;60852;52.190;4.422;2023-09-07T13:57:19;31.11;37.39
68943;DHT22;60852;52.190;4.422;2023-09-07T13:59:44;31.08;38.00
68943;DHT22;60852;52.190;4.422;2023-09-07T14:02:09;31.07;38.16
68943;DHT22;60852;52.190;4.422;2023-09-07T14:04:35;31.07;38.87
68943;DHT22;60852;52.190;4.422;2023-09-07T14:07:00;31.05;38.26
68943;DHT22;60852;52.190;4.422;2023-09-07T14:09:26;31.05;38.72
68943;DHT22;60852;52.190;4.422;2023-09-07T14:11:51;31.05;36.90
68943;DHT22;60852;52.190;4.422;2023-09-07T14:14:17;30.95;37.67
68943;DHT22;60852;52.190;4.422;2023-09-07T14:16:42;30.92;38.36
68943;DHT22;60852;52.190;4.422;2023-09-07T14:19:08;30.91;38.18
68943;DHT22;60852;52.190;4.422;2023-09-07T14:21:33;30.91;38.50
68943;DHT22;60852;52.190;4.422;2023-09-07T14:23:59;30.90;37.94
68943;DHT22;60852;52.190;4.422;2023-09-07T14:26:27;30.86;38.13
68943;DHT22;60852;52.190;4.422;2023-09-07T14:28:52;30.84;37.51
68943;DHT22;60852;52.190;4.422;2023-09-07T14:31:19;30.83;38.18
68943;DHT22;60852;52.190;4.422;2023-09-07T14:33:44;30.84;37.54
68943;DHT22;60852;52.190;4.422;2023-09-07T14:36:09;30.86;38.42
68943;DHT22;60852;52.190;4.422;2023-09-07T14:38:35;30.92;39.58
68943;DHT22;60852;52.190;4.422;2023-09-07T14:41:09;30.77;39.21
68943;DHT22;60852;52.190;4.422;2023-09-07T14:43:47;30.76;39.91
68943;DHT22;60852;52.190;4.422;2023-09-07T14:46:12;30.80;38.59
68943;DHT22;60852;52.190;4.422;2023-09-07T14:48:38;30.84;38.40
68943;DHT22;60852;52.190;4.422;2023-09-07T14:51:03;30.83;37.96
68943;DHT22;60852;52.190;4.422;2023-09-07T14:53:29;30.86;37.86
68943;DHT22;60852;52.190;4.422;2023-09-07T14:55:54;30.86;37.16
68943;DHT22;60852;52.190;4.422;2023-09-07T14:58:20;30.83;37.82
68943;DHT22;60852;52.190;4.422;2023-09-07T15:00:45;30.81;37.68
68943;DHT22;60852;52.190;4.422;2023-09-07T15:03:11;30.78;38.13
68943;DHT22;60852;52.190;4.422;2023-09-07T15:05:36;30.78;38.34
68943;DHT22;60852;52.190;4.422;2023-09-07T15:08:02;30.71;38.78
68943;DHT22;60852;52.190;4.422;2023-09-07T15:10:30;30.77;39.19
68943;DHT22;60852;52.190;4.422;2023-09-07T15:12:55;30.77;39.32
68943;DHT22;60852;52.190;4.422;2023-09-07T15:15:21;30.81;39.40
68943;DHT22;60852;52.190;4.422;2023-09-07T15:17:48;30.78;38.67
68943;DHT22;60852;52.190;4.422;2023-09-07T15:20:13;30.73;38.84
68943;DHT22;60852;52.190;4.422;2023-09-07T15:22:39;30.71;39.20
68943;DHT22;60852;52.190;4.422;2023-09-07T15:25:05;30.68;39.61
68943;DHT22;60852;52.190;4.422;2023-09-07T15:27:30;30.64;39.14